Thursday, February 11, 2016
00:36 UTC
  |  Log In   |  Register Free
Airport Search:

Laguardia Airport
(KLGA)

FAA data valid effective Feb 4 2016 - Mar 31 2016 (unless otherwise noted).

 
 
 
 
 
 
 
 
 
 
 
 
 
 
Current Aviation Weather for KLGA

Weather Summary


The most recent METAR observation for LGA was updated at: 12:51 UTC
METAR for KLGA is not available. Closest METAR is for KJFK
KLGA  (most recent observation was updatred at 10:21 UTC)
102151Z 25015KT 10SM BKN055 03/M08 A2966 RMK AO2 SLP043 T00331078 $

KJFK  (9.3 nm NW)   (most recent observation was updated at 10:21 UTC)
102151Z 27017G21KT 10SM BKN049 03/M07 A2968 RMK AO2 SLP049 T00331067

KTEB  (9.6 nm SE)   (most recent observation was updated at 10:21 UTC)
102151Z 27009KT 10SM OVC055 03/M07 A2965 RMK AO2 SLP041 T00281072

TAF for KLGA is not available.
KLGA
AMD 102031Z 1021/1118 28015G23KT P6SM BKN050 FM110200 27012G18KT P6SM BKN080 FM110800 29015G23KT P6SM OVC035 PROB30 1108/1112 P6SM -SHSN OVC025 FM111200 29018G28KT P6SM BKN150 FM111700 29022G32KT P6SM BKN050

KJFK  (9.3 nm NW)   (most recent observation was updatred at 10:20 UTC)
AMD 102031Z 1021/1124 28015G23KT P6SM BKN050 FM110200 27015G23KT P6SM BKN080 FM110800 29015G23KT P6SM OVC035 PROB30 1108/1112 P6SM -SHSN OVC025 FM111200 29020G30KT P6SM BKN150 FM111600 30023G33KT P6SM BKN150


KTEB  (9.6 nm SE)   (most recent observation was updatred at 10:20 UTC)
AMD 102031Z 1021/1118 28012G20KT P6SM BKN050 FM110100 26010KT P6SM BKN130 FM110700 28012G18KT P6SM BKN040 PROB30 1107/1111 P6SM -SHSN OVC025 FM111100 28015G23KT P6SM BKN200 FM111500 29018G28KT P6SM BKN050
GlobalAir.com is loading additional information.
 Current Weather at LGA
37.0 F° (2.8 C°)

West winds at 16.1 mph
Pressure:
29.69 in
Humidity:
44%
Wind:
West at 16.1 mph
Dew Point:
17.1 F° (-8.3 C°)
Visibility:
10.00 mi
LGA NOAA Radar




Find All Airport Services Find A Hotel Find A Rental Car Find A Golf Course Find A Restaurant $100 Hamburger



Airport Weather Forecast for KLGA

Translated METAR for KLGA (2151 UTC)
METAR:
KLGA 102151Z 25015KT 10SM BKN055 03/M08 A2966 RMK AO2 SLP043 T00331078 $
Conditions at:
KLGA (Laguardia, NY) observed 2151 UTC 10 February 2016
Temperature:
3°C (37.4°F)
Dewpoint:
-8°C (17.6°F) [RH = 44.3]
Pressure:
29.66 inches Hg (1004.4 mb)
pressure at sea level is 43 in Hg
Winds:
from the WSW (250 degrees) at 17.3 mph (15 knots: 7.7 m/s)
Visibility:
10 mile(s)
Ceiling:
5,500 feet AGL
Clouds:
Broken Cloud Cover at 5,500 feet AGL
Remarks:
SOME DATA ABOVE MAY BE INACCURATE!!!
"$" is an indication the sensor requires maintenance
site is automated and HAS a precipitation sensor

Translated TAF for KLGA (Laguardia, NY) (2031 UTC)
TAF text:
KLGA 102031Z 1021/1118 28015G23KT P6SM BKN050
Forecast period:
Wednesday Feb 10 2016 21:00 UTC - Thursday Feb 11 2016 18:00 UTC
Forecast type:
FROM: standard forecast or significant change
Winds:
from the W (280 degrees) at 17.3 mph (15 knots: 7.7 m/s)
gusting to 26.5 mph (23 knots: 11.8 m/s)
Visibility:
6 or more mile(s) (9.7+ km)
Ceiling:
5,000 feet AGL
Clouds:
Broken Cloud Cover at 5,000 feet AGL
Weather:
no significant weather observed at this time
TAF text:
FM110200 27012G18KT P6SM BKN080
Forecast period:
Thursday Feb 11 2016 02:00 UTC - Thursday Feb 11 2016 08:00 UTC
Forecast type:
FROM: standard forecast or significant change
Winds:
from the W (270 degrees) at 13.8 mph (12 knots: 6.2 m/s)
gusting to 20.7 mph (18 knots: 9.3 m/s)
Visibility:
6 or more mile(s) (9.7+ km)
Ceiling:
8,000 feet AGL
Clouds:
Broken Cloud Cover at 8,000 feet AGL
Weather:
no significant weather observed at this time
TAF text:
FM110800 29015G23KT P6SM OVC035 PROB30 1108/1112 P6SM -SHSN OVC025
Forecast period:
Thursday Feb 11 2016 08:00 UTC - Thursday Feb 11 2016 12:00 UTC
Forecast type:
FROM: standard forecast or significant change
Winds:
from the WNW (290 degrees) at 17.3 mph (15 knots: 7.7 m/s)
gusting to 26.5 mph (23 knots: 11.8 m/s)
Visibility:
6 or more mile(s) (9.7+ km)6 or more mile(s) (9.7+ km)
Ceiling:
3,500 feet AGL
2,500 feet AGL
Clouds:
Overcast Skies at 3,500 feet AGL
Overcast Skies at 2,500 feet AGL
Weather:
Moderate Partial
TAF text:
FM111200 29018G28KT P6SM BKN150
Forecast period:
Thursday Feb 11 2016 12:00 UTC - Thursday Feb 11 2016 17:00 UTC
Forecast type:
FROM: standard forecast or significant change
Winds:
from the WNW (290 degrees) at 20.7 mph (18 knots: 9.3 m/s)
gusting to 32.2 mph (28 knots: 14.4 m/s)
Visibility:
6 or more mile(s) (9.7+ km)
Ceiling:
15,000 feet AGL
Clouds:
Broken Cloud Cover at 15,000 feet AGL
Weather:
no significant weather observed at this time
TAF text:
FM111700 29022G32KT P6SM BKN050
Forecast period:
Thursday Feb 11 2016 17:00 UTC - Thursday Feb 11 2016 18:00 UTC
Forecast type:
FROM: standard forecast or significant change
Winds:
from the WNW (290 degrees) at 25.3 mph (22 knots: 11.3 m/s)
gusting to 36.8 mph (32 knots: 16.5 m/s)
Visibility:
6 or more mile(s) (9.7+ km)
Ceiling:
5,000 feet AGL
Clouds:
Broken Cloud Cover at 5,000 feet AGL
Weather:
no significant weather observed at this time
FBO's on the Field
FBO Company Facility Photos Services Transportation Aviation Fuel Prices: Prices include tax
Catering Weather Repair Courtesy Rental Type 100LL JetA JetA+ MOGAS 8087
 
Sheltair

This FBO has not yet been rated
FS:Avfuel
Last Updated: Jan-12
Login to update fuel prices
SS:
Contact SheltairMore FBO Information
 
Add another FBO Facility Photos Catering Weather Repair Courtesy Rental Type 100LL JetA JetA+ MOGAS 8087
Services Transportation Aviation Fuel Prices: Prices include tax


model-print
model-print
model-print
model-print